sensor_id;sensor_type;location;lat;lon;timestamp;temperature;humidity
74488;DHT22;63019;51.080;13.642;2022-12-29T00:00:08;9.40;92.30
74488;DHT22;63019;51.080;13.642;2022-12-29T00:01:11;9.40;92.40
74488;DHT22;63019;51.080;13.642;2022-12-29T00:02:13;9.40;92.40
74488;DHT22;63019;51.080;13.642;2022-12-29T00:03:15;9.40;92.40
74488;DHT22;63019;51.080;13.642;2022-12-29T00:04:18;9.40;92.40
74488;DHT22;63019;51.080;13.642;2022-12-29T00:05:20;9.40;92.40
74488;DHT22;63019;51.080;13.642;2022-12-29T00:06:22;9.50;92.40
74488;DHT22;63019;51.080;13.642;2022-12-29T00:07:24;9.50;92.30
74488;DHT22;63019;51.080;13.642;2022-12-29T00:08:26;9.50;92.20
74488;DHT22;63019;51.080;13.642;2022-12-29T00:09:44;9.50;92.40
74488;DHT22;63019;51.080;13.642;2022-12-29T00:10:46;9.60;92.20
74488;DHT22;63019;51.080;13.642;2022-12-29T00:11:48;9.60;92.00
74488;DHT22;63019;51.080;13.642;2022-12-29T00:12:51;9.70;92.00
74488;DHT22;63019;51.080;13.642;2022-12-29T00:14:12;9.70;92.00
74488;DHT22;63019;51.080;13.642;2022-12-29T00:15:32;9.70;91.90
74488;DHT22;63019;51.080;13.642;2022-12-29T00:16:43;9.70;92.00
74488;DHT22;63019;51.080;13.642;2022-12-29T00:17:45;9.80;91.80
74488;DHT22;63019;51.080;13.642;2022-12-29T00:18:47;9.80;91.80
74488;DHT22;63019;51.080;13.642;2022-12-29T00:19:48;9.80;91.90
74488;DHT22;63019;51.080;13.642;2022-12-29T00:21:19;9.80;91.90
74488;DHT22;63019;51.080;13.642;2022-12-29T00:22:40;9.80;91.90
74488;DHT22;63019;51.080;13.642;2022-12-29T00:24:00;9.90;92.00
74488;DHT22;63019;51.080;13.642;2022-12-29T00:25:29;9.90;91.80
74488;DHT22;63019;51.080;13.642;2022-12-29T00:28:18;10.00;91.00
74488;DHT22;63019;51.080;13.642;2022-12-29T00:29:38;10.00;90.80
74488;DHT22;63019;51.080;13.642;2022-12-29T00:31:00;10.10;90.80
74488;DHT22;63019;51.080;13.642;2022-12-29T00:32:21;10.10;90.60
74488;DHT22;63019;51.080;13.642;2022-12-29T00:33:41;10.20;90.50
74488;DHT22;63019;51.080;13.642;2022-12-29T00:35:01;10.20;90.30
74488;DHT22;63019;51.080;13.642;2022-12-29T00:36:28;10.30;90.50
74488;DHT22;63019;51.080;13.642;2022-12-29T00:37:32;10.30;90.40
74488;DHT22;63019;51.080;13.642;2022-12-29T00:38:57;10.30;90.50
74488;DHT22;63019;51.080;13.642;2022-12-29T00:40:18;10.20;90.70
74488;DHT22;63019;51.080;13.642;2022-12-29T00:41:38;10.20;90.90
74488;DHT22;63019;51.080;13.642;2022-12-29T00:42:59;10.20;91.10
74488;DHT22;63019;51.080;13.642;2022-12-29T00:44:20;10.20;91.40
74488;DHT22;63019;51.080;13.642;2022-12-29T00:45:21;10.20;91.40
74488;DHT22;63019;51.080;13.642;2022-12-29T00:46:23;10.10;91.50
74488;DHT22;63019;51.080;13.642;2022-12-29T00:47:25;10.10;91.50
74488;DHT22;63019;51.080;13.642;2022-12-29T00:48:27;10.10;91.90
74488;DHT22;63019;51.080;13.642;2022-12-29T00:49:47;10.10;91.90
74488;DHT22;63019;51.080;13.642;2022-12-29T00:50:49;10.00;92.20
74488;DHT22;63019;51.080;13.642;2022-12-29T00:51:51;10.00;92.50
74488;DHT22;63019;51.080;13.642;2022-12-29T00:52:53;10.00;92.70
74488;DHT22;63019;51.080;13.642;2022-12-29T00:53:55;9.90;93.40
74488;DHT22;63019;51.080;13.642;2022-12-29T00:54:56;9.90;93.50
74488;DHT22;63019;51.080;13.642;2022-12-29T00:55:58;9.90;93.70
74488;DHT22;63019;51.080;13.642;2022-12-29T00:57:01;9.90;93.70
74488;DHT22;63019;51.080;13.642;2022-12-29T00:58:03;9.90;94.00
74488;DHT22;63019;51.080;13.642;2022-12-29T00:59:08;9.90;93.90
74488;DHT22;63019;51.080;13.642;2022-12-29T01:00:10;9.80;94.30
74488;DHT22;63019;51.080;13.642;2022-12-29T01:01:12;9.80;94.30
74488;DHT22;63019;51.080;13.642;2022-12-29T01:02:14;9.80;94.60
74488;DHT22;63019;51.080;13.642;2022-12-29T01:03:16;9.80;94.50
74488;DHT22;63019;51.080;13.642;2022-12-29T01:04:20;9.80;94.50
74488;DHT22;63019;51.080;13.642;2022-12-29T01:05:21;9.80;94.90
74488;DHT22;63019;51.080;13.642;2022-12-29T01:06:23;9.70;95.00
74488;DHT22;63019;51.080;13.642;2022-12-29T01:07:25;9.70;95.20
74488;DHT22;63019;51.080;13.642;2022-12-29T01:08:28;9.70;95.30
74488;DHT22;63019;51.080;13.642;2022-12-29T01:09:31;9.70;95.40
74488;DHT22;63019;51.080;13.642;2022-12-29T01:11:05;9.70;95.50
74488;DHT22;63019;51.080;13.642;2022-12-29T01:12:08;9.70;95.70
74488;DHT22;63019;51.080;13.642;2022-12-29T01:13:10;9.70;95.80
74488;DHT22;63019;51.080;13.642;2022-12-29T01:14:12;9.70;96.00
74488;DHT22;63019;51.080;13.642;2022-12-29T01:15:14;9.60;96.20
74488;DHT22;63019;51.080;13.642;2022-12-29T01:16:22;9.60;96.30
74488;DHT22;63019;51.080;13.642;2022-12-29T01:17:24;9.60;96.10
74488;DHT22;63019;51.080;13.642;2022-12-29T01:18:26;9.60;96.30
74488;DHT22;63019;51.080;13.642;2022-12-29T01:19:28;9.60;96.40
74488;DHT22;63019;51.080;13.642;2022-12-29T01:20:29;9.60;96.70
74488;DHT22;63019;51.080;13.642;2022-12-29T01:21:32;9.60;96.40
74488;DHT22;63019;51.080;13.642;2022-12-29T01:22:34;9.60;96.70
74488;DHT22;63019;51.080;13.642;2022-12-29T01:23:36;9.60;96.60
74488;DHT22;63019;51.080;13.642;2022-12-29T01:24:37;9.50;96.70
74488;DHT22;63019;51.080;13.642;2022-12-29T01:25:39;9.60;96.50
74488;DHT22;63019;51.080;13.642;2022-12-29T01:26:41;9.60;96.70
74488;DHT22;63019;51.080;13.642;2022-12-29T01:27:43;9.50;96.90
74488;DHT22;63019;51.080;13.642;2022-12-29T01:28:45;9.50;96.90
74488;DHT22;63019;51.080;13.642;2022-12-29T01:29:47;9.50;96.90
74488;DHT22;63019;51.080;13.642;2022-12-29T01:30:49;9.50;97.00
74488;DHT22;63019;51.080;13.642;2022-12-29T01:31:50;9.50;97.00
74488;DHT22;63019;51.080;13.642;2022-12-29T01:32:52;9.50;97.20
74488;DHT22;63019;51.080;13.642;2022-12-29T01:33:54;9.50;97.40
74488;DHT22;63019;51.080;13.642;2022-12-29T01:34:56;9.50;97.30
74488;DHT22;63019;51.080;13.642;2022-12-29T01:36:05;9.40;97.20
74488;DHT22;63019;51.080;13.642;2022-12-29T01:37:08;9.50;97.20
74488;DHT22;63019;51.080;13.642;2022-12-29T01:38:10;9.40;97.30
74488;DHT22;63019;51.080;13.642;2022-12-29T01:39:11;9.40;97.30
74488;DHT22;63019;51.080;13.642;2022-12-29T01:40:14;9.40;97.30
74488;DHT22;63019;51.080;13.642;2022-12-29T01:41:18;9.40;97.30
74488;DHT22;63019;51.080;13.642;2022-12-29T01:42:24;9.40;97.40
74488;DHT22;63019;51.080;13.642;2022-12-29T01:43:50;9.40;97.70
74488;DHT22;63019;51.080;13.642;2022-12-29T01:44:57;9.40;97.60
74488;DHT22;63019;51.080;13.642;2022-12-29T01:45:59;9.40;97.60
74488;DHT22;63019;51.080;13.642;2022-12-29T01:47:01;9.40;98.00
74488;DHT22;63019;51.080;13.642;2022-12-29T01:48:04;9.40;97.80
74488;DHT22;63019;51.080;13.642;2022-12-29T01:49:22;9.40;97.90
74488;DHT22;63019;51.080;13.642;2022-12-29T01:50:28;9.40;97.90
74488;DHT22;63019;51.080;13.642;2022-12-29T01:51:35;9.40;97.80
74488;DHT22;63019;51.080;13.642;2022-12-29T01:52:42;9.40;97.80
74488;DHT22;63019;51.080;13.642;2022-12-29T01:53:46;9.40;97.90
74488;DHT22;63019;51.080;13.642;2022-12-29T01:54:50;9.40;98.10
74488;DHT22;63019;51.080;13.642;2022-12-29T01:56:00;9.40;98.00
74488;DHT22;63019;51.080;13.642;2022-12-29T01:57:06;9.40;98.20
74488;DHT22;63019;51.080;13.642;2022-12-29T01:58:11;9.40;98.40
74488;DHT22;63019;51.080;13.642;2022-12-29T01:59:20;9.40;98.30
74488;DHT22;63019;51.080;13.642;2022-12-29T02:00:24;9.40;98.30
74488;DHT22;63019;51.080;13.642;2022-12-29T02:01:26;9.40;98.40
74488;DHT22;63019;51.080;13.642;2022-12-29T02:02:28;9.40;98.10
74488;DHT22;63019;51.080;13.642;2022-12-29T02:03:34;9.40;98.40
74488;DHT22;63019;51.080;13.642;2022-12-29T02:04:40;9.40;98.50
74488;DHT22;63019;51.080;13.642;2022-12-29T02:06:08;9.40;98.50
74488;DHT22;63019;51.080;13.642;2022-12-29T02:07:17;9.50;98.50
74488;DHT22;63019;51.080;13.642;2022-12-29T02:08:24;9.50;98.50
74488;DHT22;63019;51.080;13.642;2022-12-29T02:09:27;9.40;98.70
74488;DHT22;63019;51.080;13.642;2022-12-29T02:10:31;9.40;98.70
74488;DHT22;63019;51.080;13.642;2022-12-29T02:11:35;9.40;98.70
74488;DHT22;63019;51.080;13.642;2022-12-29T02:12:37;9.40;98.60
74488;DHT22;63019;51.080;13.642;2022-12-29T02:13:39;9.40;98.60
74488;DHT22;63019;51.080;13.642;2022-12-29T02:14:41;9.40;98.40
74488;DHT22;63019;51.080;13.642;2022-12-29T02:28:25;9.60;98.30
74488;DHT22;63019;51.080;13.642;2022-12-29T02:33:13;9.60;98.20
74488;DHT22;63019;51.080;13.642;2022-12-29T02:36:49;9.70;98.00
74488;DHT22;63019;51.080;13.642;2022-12-29T02:38:27;9.70;97.90
74488;DHT22;63019;51.080;13.642;2022-12-29T02:39:40;9.80;97.90
74488;DHT22;63019;51.080;13.642;2022-12-29T02:40:51;9.80;98.30
74488;DHT22;63019;51.080;13.642;2022-12-29T02:46:28;9.80;97.90
74488;DHT22;63019;51.080;13.642;2022-12-29T02:49:00;9.80;97.70
74488;DHT22;63019;51.080;13.642;2022-12-29T02:50:37;9.90;97.70
74488;DHT22;63019;51.080;13.642;2022-12-29T02:52:31;9.90;97.80
74488;DHT22;63019;51.080;13.642;2022-12-29T02:53:26;9.90;97.60
74488;DHT22;63019;51.080;13.642;2022-12-29T02:54:48;9.90;97.50
74488;DHT22;63019;51.080;13.642;2022-12-29T02:55:51;10.00;96.90
74488;DHT22;63019;51.080;13.642;2022-12-29T02:56:53;10.00;96.80
74488;DHT22;63019;51.080;13.642;2022-12-29T02:58:24;10.00;96.70
74488;DHT22;63019;51.080;13.642;2022-12-29T02:59:26;10.00;96.60
74488;DHT22;63019;51.080;13.642;2022-12-29T03:00:28;10.00;96.60
74488;DHT22;63019;51.080;13.642;2022-12-29T03:04:12;10.00;96.60
74488;DHT22;63019;51.080;13.642;2022-12-29T03:08:06;10.10;96.50
74488;DHT22;63019;51.080;13.642;2022-12-29T03:10:48;10.10;96.20
74488;DHT22;63019;51.080;13.642;2022-12-29T03:12:00;10.20;96.20
74488;DHT22;63019;51.080;13.642;2022-12-29T03:13:15;10.10;96.10
74488;DHT22;63019;51.080;13.642;2022-12-29T03:14:50;10.20;96.10
74488;DHT22;63019;51.080;13.642;2022-12-29T03:16:25;10.20;96.10
74488;DHT22;63019;51.080;13.642;2022-12-29T03:17:45;10.10;96.20
74488;DHT22;63019;51.080;13.642;2022-12-29T03:19:51;10.20;96.20
74488;DHT22;63019;51.080;13.642;2022-12-29T03:21:00;10.20;96.00
74488;DHT22;63019;51.080;13.642;2022-12-29T03:22:07;10.20;95.80
74488;DHT22;63019;51.080;13.642;2022-12-29T03:23:29;10.30;95.80
74488;DHT22;63019;51.080;13.642;2022-12-29T03:24:36;10.30;95.70
74488;DHT22;63019;51.080;13.642;2022-12-29T03:25:44;10.40;95.80
74488;DHT22;63019;51.080;13.642;2022-12-29T03:26:48;10.40;95.80
74488;DHT22;63019;51.080;13.642;2022-12-29T03:27:55;10.50;95.70
74488;DHT22;63019;51.080;13.642;2022-12-29T03:28:58;10.50;95.70
74488;DHT22;63019;51.080;13.642;2022-12-29T03:30:05;10.50;95.60
74488;DHT22;63019;51.080;13.642;2022-12-29T03:31:09;10.50;95.50
74488;DHT22;63019;51.080;13.642;2022-12-29T03:32:12;10.50;95.40
74488;DHT22;63019;51.080;13.642;2022-12-29T03:33:22;10.50;95.20
74488;DHT22;63019;51.080;13.642;2022-12-29T03:34:26;10.50;95.20
74488;DHT22;63019;51.080;13.642;2022-12-29T03:35:31;10.50;95.30
74488;DHT22;63019;51.080;13.642;2022-12-29T03:36:46;10.60;95.20
74488;DHT22;63019;51.080;13.642;2022-12-29T03:39:16;10.60;95.30
74488;DHT22;63019;51.080;13.642;2022-12-29T03:40:21;10.60;95.00
74488;DHT22;63019;51.080;13.642;2022-12-29T03:41:28;10.60;94.90
74488;DHT22;63019;51.080;13.642;2022-12-29T03:42:33;10.60;94.80
74488;DHT22;63019;51.080;13.642;2022-12-29T03:43:37;10.60;95.00
74488;DHT22;63019;51.080;13.642;2022-12-29T03:44:41;10.70;94.80
74488;DHT22;63019;51.080;13.642;2022-12-29T03:45:43;10.60;94.90
74488;DHT22;63019;51.080;13.642;2022-12-29T03:46:45;10.60;94.80
74488;DHT22;63019;51.080;13.642;2022-12-29T03:47:47;10.60;94.80
74488;DHT22;63019;51.080;13.642;2022-12-29T03:48:49;10.60;94.80
74488;DHT22;63019;51.080;13.642;2022-12-29T03:49:51;10.60;94.70
74488;DHT22;63019;51.080;13.642;2022-12-29T03:50:53;10.60;94.80
74488;DHT22;63019;51.080;13.642;2022-12-29T03:51:55;10.60;94.60
74488;DHT22;63019;51.080;13.642;2022-12-29T03:52:56;10.60;94.90
74488;DHT22;63019;51.080;13.642;2022-12-29T03:53:58;10.60;94.90
74488;DHT22;63019;51.080;13.642;2022-12-29T03:55:00;10.60;94.80
74488;DHT22;63019;51.080;13.642;2022-12-29T03:56:02;10.60;94.90
74488;DHT22;63019;51.080;13.642;2022-12-29T03:57:04;10.60;94.90
74488;DHT22;63019;51.080;13.642;2022-12-29T03:58:06;10.60;95.00
74488;DHT22;63019;51.080;13.642;2022-12-29T03:59:07;10.60;94.90
74488;DHT22;63019;51.080;13.642;2022-12-29T04:00:10;10.60;95.00
74488;DHT22;63019;51.080;13.642;2022-12-29T04:01:12;10.60;94.90
74488;DHT22;63019;51.080;13.642;2022-12-29T04:02:14;10.60;94.80
74488;DHT22;63019;51.080;13.642;2022-12-29T04:03:19;10.60;94.90
74488;DHT22;63019;51.080;13.642;2022-12-29T04:04:20;10.60;94.90
74488;DHT22;63019;51.080;13.642;2022-12-29T04:05:22;10.60;94.80
74488;DHT22;63019;51.080;13.642;2022-12-29T04:06:24;10.60;95.00
74488;DHT22;63019;51.080;13.642;2022-12-29T04:07:26;10.60;95.00
74488;DHT22;63019;51.080;13.642;2022-12-29T04:08:28;10.60;94.90
74488;DHT22;63019;51.080;13.642;2022-12-29T04:09:30;10.70;94.90
74488;DHT22;63019;51.080;13.642;2022-12-29T04:10:32;10.70;94.80
74488;DHT22;63019;51.080;13.642;2022-12-29T04:11:34;10.70;94.70
74488;DHT22;63019;51.080;13.642;2022-12-29T04:12:36;10.80;94.80
74488;DHT22;63019;51.080;13.642;2022-12-29T04:13:38;10.80;94.70
74488;DHT22;63019;51.080;13.642;2022-12-29T04:14:42;10.90;94.60
74488;DHT22;63019;51.080;13.642;2022-12-29T04:15:44;10.90;94.70
74488;DHT22;63019;51.080;13.642;2022-12-29T04:16:46;10.90;94.70
74488;DHT22;63019;51.080;13.642;2022-12-29T04:17:48;10.80;94.70
74488;DHT22;63019;51.080;13.642;2022-12-29T04:18:50;10.90;94.90
74488;DHT22;63019;51.080;13.642;2022-12-29T04:19:52;10.80;94.90
74488;DHT22;63019;51.080;13.642;2022-12-29T04:21:14;10.90;94.90
74488;DHT22;63019;51.080;13.642;2022-12-29T04:22:18;10.90;94.80
74488;DHT22;63019;51.080;13.642;2022-12-29T04:23:20;10.90;94.70
74488;DHT22;63019;51.080;13.642;2022-12-29T04:24:22;10.90;94.80
74488;DHT22;63019;51.080;13.642;2022-12-29T04:25:24;10.90;94.90
74488;DHT22;63019;51.080;13.642;2022-12-29T04:26:26;10.90;94.90
74488;DHT22;63019;51.080;13.642;2022-12-29T04:27:27;11.00;94.90
74488;DHT22;63019;51.080;13.642;2022-12-29T04:28:29;11.00;94.80
74488;DHT22;63019;51.080;13.642;2022-12-29T04:29:31;11.00;94.80
74488;DHT22;63019;51.080;13.642;2022-12-29T04:30:33;11.00;94.70
74488;DHT22;63019;51.080;13.642;2022-12-29T04:31:34;11.10;94.80
74488;DHT22;63019;51.080;13.642;2022-12-29T04:32:36;11.10;94.90
74488;DHT22;63019;51.080;13.642;2022-12-29T04:33:39;11.10;94.90
74488;DHT22;63019;51.080;13.642;2022-12-29T04:34:41;11.10;94.90
74488;DHT22;63019;51.080;13.642;2022-12-29T04:35:43;11.10;94.90
74488;DHT22;63019;51.080;13.642;2022-12-29T04:36:45;11.20;95.00
74488;DHT22;63019;51.080;13.642;2022-12-29T04:37:47;11.20;94.80
74488;DHT22;63019;51.080;13.642;2022-12-29T04:38:49;11.20;95.00
74488;DHT22;63019;51.080;13.642;2022-12-29T04:39:51;11.20;95.00
74488;DHT22;63019;51.080;13.642;2022-12-29T04:40:53;11.20;94.90
74488;DHT22;63019;51.080;13.642;2022-12-29T04:41:55;11.20;94.90
74488;DHT22;63019;51.080;13.642;2022-12-29T04:42:56;11.20;95.00
74488;DHT22;63019;51.080;13.642;2022-12-29T04:43:58;11.20;95.00
74488;DHT22;63019;51.080;13.642;2022-12-29T04:45:01;11.20;95.00
74488;DHT22;63019;51.080;13.642;2022-12-29T04:46:03;11.20;94.90
74488;DHT22;63019;51.080;13.642;2022-12-29T04:47:05;11.20;94.90
74488;DHT22;63019;51.080;13.642;2022-12-29T04:48:08;11.20;95.00
74488;DHT22;63019;51.080;13.642;2022-12-29T04:49:09;11.20;94.90
74488;DHT22;63019;51.080;13.642;2022-12-29T04:50:12;11.20;95.00
74488;DHT22;63019;51.080;13.642;2022-12-29T04:51:14;11.20;95.20
74488;DHT22;63019;51.080;13.642;2022-12-29T04:52:16;11.20;95.30
74488;DHT22;63019;51.080;13.642;2022-12-29T04:53:19;11.20;95.30
74488;DHT22;63019;51.080;13.642;2022-12-29T04:54:20;11.20;95.50
74488;DHT22;63019;51.080;13.642;2022-12-29T04:55:22;11.20;95.50
74488;DHT22;63019;51.080;13.642;2022-12-29T04:56:24;11.20;95.70
74488;DHT22;63019;51.080;13.642;2022-12-29T04:57:26;11.20;95.90
74488;DHT22;63019;51.080;13.642;2022-12-29T04:58:28;11.20;96.00
74488;DHT22;63019;51.080;13.642;2022-12-29T04:59:30;11.10;96.00
74488;DHT22;63019;51.080;13.642;2022-12-29T05:00:32;11.10;96.00
74488;DHT22;63019;51.080;13.642;2022-12-29T05:01:34;11.10;96.00
74488;DHT22;63019;51.080;13.642;2022-12-29T05:02:36;11.10;95.90
74488;DHT22;63019;51.080;13.642;2022-12-29T05:03:39;11.10;95.70
74488;DHT22;63019;51.080;13.642;2022-12-29T05:04:40;11.20;95.80
74488;DHT22;63019;51.080;13.642;2022-12-29T05:05:42;11.20;95.80
74488;DHT22;63019;51.080;13.642;2022-12-29T05:06:44;11.20;95.80
74488;DHT22;63019;51.080;13.642;2022-12-29T05:07:46;11.20;95.80
74488;DHT22;63019;51.080;13.642;2022-12-29T05:08:48;11.20;95.60
74488;DHT22;63019;51.080;13.642;2022-12-29T05:09:49;11.20;95.90
74488;DHT22;63019;51.080;13.642;2022-12-29T05:10:51;11.20;95.70
74488;DHT22;63019;51.080;13.642;2022-12-29T05:11:53;11.20;95.60
74488;DHT22;63019;51.080;13.642;2022-12-29T05:12:55;11.20;95.60
74488;DHT22;63019;51.080;13.642;2022-12-29T05:13:56;11.20;95.50
74488;DHT22;63019;51.080;13.642;2022-12-29T05:14:59;11.20;95.60
74488;DHT22;63019;51.080;13.642;2022-12-29T05:16:01;11.20;95.40
74488;DHT22;63019;51.080;13.642;2022-12-29T05:17:03;11.20;95.60
74488;DHT22;63019;51.080;13.642;2022-12-29T05:18:04;11.20;95.60
74488;DHT22;63019;51.080;13.642;2022-12-29T05:19:06;11.30;95.60
74488;DHT22;63019;51.080;13.642;2022-12-29T05:20:09;11.30;95.50
74488;DHT22;63019;51.080;13.642;2022-12-29T05:21:11;11.30;95.40
74488;DHT22;63019;51.080;13.642;2022-12-29T05:22:13;11.30;95.50
74488;DHT22;63019;51.080;13.642;2022-12-29T05:23:16;11.30;95.40
74488;DHT22;63019;51.080;13.642;2022-12-29T05:24:19;11.30;95.30
74488;DHT22;63019;51.080;13.642;2022-12-29T05:25:21;11.30;95.40
74488;DHT22;63019;51.080;13.642;2022-12-29T05:26:22;11.30;95.40
74488;DHT22;63019;51.080;13.642;2022-12-29T05:27:24;11.30;95.30
74488;DHT22;63019;51.080;13.642;2022-12-29T05:28:26;11.30;95.40
74488;DHT22;63019;51.080;13.642;2022-12-29T05:29:28;11.30;95.40
74488;DHT22;63019;51.080;13.642;2022-12-29T05:30:29;11.30;95.40
74488;DHT22;63019;51.080;13.642;2022-12-29T05:31:31;11.30;95.20
74488;DHT22;63019;51.080;13.642;2022-12-29T05:32:34;11.30;95.30
74488;DHT22;63019;51.080;13.642;2022-12-29T05:33:36;11.30;95.30
74488;DHT22;63019;51.080;13.642;2022-12-29T05:34:38;11.30;95.30
74488;DHT22;63019;51.080;13.642;2022-12-29T05:35:39;11.30;95.40
74488;DHT22;63019;51.080;13.642;2022-12-29T05:36:41;11.30;95.40
74488;DHT22;63019;51.080;13.642;2022-12-29T05:37:43;11.30;95.30
74488;DHT22;63019;51.080;13.642;2022-12-29T05:38:45;11.30;95.30
74488;DHT22;63019;51.080;13.642;2022-12-29T05:39:46;11.30;95.30
74488;DHT22;63019;51.080;13.642;2022-12-29T05:40:48;11.30;95.40
74488;DHT22;63019;51.080;13.642;2022-12-29T05:41:50;11.30;95.40
74488;DHT22;63019;51.080;13.642;2022-12-29T05:42:52;11.30;95.50
74488;DHT22;63019;51.080;13.642;2022-12-29T05:43:53;11.30;95.40
74488;DHT22;63019;51.080;13.642;2022-12-29T05:44:55;11.30;95.30
74488;DHT22;63019;51.080;13.642;2022-12-29T05:45:57;11.30;95.30
74488;DHT22;63019;51.080;13.642;2022-12-29T05:46:59;11.30;95.30
74488;DHT22;63019;51.080;13.642;2022-12-29T05:48:01;11.40;95.50
74488;DHT22;63019;51.080;13.642;2022-12-29T05:49:03;11.30;95.40
74488;DHT22;63019;51.080;13.642;2022-12-29T05:50:04;11.40;95.30
74488;DHT22;63019;51.080;13.642;2022-12-29T05:51:06;11.40;95.30
74488;DHT22;63019;51.080;13.642;2022-12-29T05:52:08;11.40;95.20
74488;DHT22;63019;51.080;13.642;2022-12-29T05:53:10;11.40;95.20
74488;DHT22;63019;51.080;13.642;2022-12-29T05:54:12;11.40;95.30
74488;DHT22;63019;51.080;13.642;2022-12-29T05:55:14;11.40;95.10
74488;DHT22;63019;51.080;13.642;2022-12-29T05:56:16;11.40;95.10
74488;DHT22;63019;51.080;13.642;2022-12-29T05:57:18;11.40;95.10
74488;DHT22;63019;51.080;13.642;2022-12-29T05:58:19;11.40;95.00
74488;DHT22;63019;51.080;13.642;2022-12-29T05:59:21;11.40;95.10
74488;DHT22;63019;51.080;13.642;2022-12-29T06:00:23;11.40;95.10
74488;DHT22;63019;51.080;13.642;2022-12-29T06:01:25;11.40;95.10
74488;DHT22;63019;51.080;13.642;2022-12-29T06:02:27;11.40;95.10
74488;DHT22;63019;51.080;13.642;2022-12-29T06:03:29;11.40;95.10
74488;DHT22;63019;51.080;13.642;2022-12-29T06:04:31;11.40;95.20
74488;DHT22;63019;51.080;13.642;2022-12-29T06:05:33;11.40;95.10
74488;DHT22;63019;51.080;13.642;2022-12-29T06:06:35;11.40;95.10
74488;DHT22;63019;51.080;13.642;2022-12-29T06:07:37;11.40;95.10
74488;DHT22;63019;51.080;13.642;2022-12-29T06:08:38;11.40;95.20
74488;DHT22;63019;51.080;13.642;2022-12-29T06:09:40;11.40;95.40
74488;DHT22;63019;51.080;13.642;2022-12-29T06:10:42;11.30;95.00
74488;DHT22;63019;51.080;13.642;2022-12-29T06:11:44;11.40;95.20
74488;DHT22;63019;51.080;13.642;2022-12-29T06:12:45;11.40;95.10
74488;DHT22;63019;51.080;13.642;2022-12-29T06:13:48;11.40;95.20
74488;DHT22;63019;51.080;13.642;2022-12-29T06:14:50;11.40;95.20
74488;DHT22;63019;51.080;13.642;2022-12-29T06:15:51;11.40;95.20
74488;DHT22;63019;51.080;13.642;2022-12-29T06:16:53;11.40;95.10
74488;DHT22;63019;51.080;13.642;2022-12-29T06:17:55;11.40;95.10
74488;DHT22;63019;51.080;13.642;2022-12-29T06:18:57;11.40;95.10
74488;DHT22;63019;51.080;13.642;2022-12-29T06:19:59;11.40;95.10
74488;DHT22;63019;51.080;13.642;2022-12-29T06:21:01;11.40;95.20
74488;DHT22;63019;51.080;13.642;2022-12-29T06:22:04;11.40;95.10
74488;DHT22;63019;51.080;13.642;2022-12-29T06:23:06;11.40;95.20
74488;DHT22;63019;51.080;13.642;2022-12-29T06:24:08;11.40;95.20
74488;DHT22;63019;51.080;13.642;2022-12-29T06:25:10;11.40;95.10
74488;DHT22;63019;51.080;13.642;2022-12-29T06:26:11;11.40;95.10
74488;DHT22;63019;51.080;13.642;2022-12-29T06:27:13;11.40;95.10
74488;DHT22;63019;51.080;13.642;2022-12-29T06:28:15;11.40;95.00
74488;DHT22;63019;51.080;13.642;2022-12-29T06:29:18;11.40;95.00
74488;DHT22;63019;51.080;13.642;2022-12-29T06:30:21;11.40;94.90
74488;DHT22;63019;51.080;13.642;2022-12-29T06:31:23;11.40;94.80
74488;DHT22;63019;51.080;13.642;2022-12-29T06:32:25;11.40;94.80
74488;DHT22;63019;51.080;13.642;2022-12-29T06:33:27;11.30;94.80
74488;DHT22;63019;51.080;13.642;2022-12-29T06:34:29;11.40;94.70
74488;DHT22;63019;51.080;13.642;2022-12-29T06:35:31;11.40;94.60
74488;DHT22;63019;51.080;13.642;2022-12-29T06:36:33;11.40;94.70
74488;DHT22;63019;51.080;13.642;2022-12-29T06:37:35;11.40;94.60
74488;DHT22;63019;51.080;13.642;2022-12-29T06:38:37;11.40;94.50
74488;DHT22;63019;51.080;13.642;2022-12-29T06:39:39;11.40;94.30
74488;DHT22;63019;51.080;13.642;2022-12-29T06:40:42;11.40;94.30
74488;DHT22;63019;51.080;13.642;2022-12-29T06:41:46;11.40;94.50
74488;DHT22;63019;51.080;13.642;2022-12-29T06:42:48;11.40;94.40
74488;DHT22;63019;51.080;13.642;2022-12-29T06:43:50;11.40;94.20
74488;DHT22;63019;51.080;13.642;2022-12-29T06:44:51;11.40;94.50
74488;DHT22;63019;51.080;13.642;2022-12-29T06:45:53;11.40;94.40
74488;DHT22;63019;51.080;13.642;2022-12-29T06:46:55;11.40;94.30
74488;DHT22;63019;51.080;13.642;2022-12-29T06:47:58;11.40;94.30
74488;DHT22;63019;51.080;13.642;2022-12-29T06:49:00;11.40;94.40
74488;DHT22;63019;51.080;13.642;2022-12-29T06:50:02;11.30;94.50
74488;DHT22;63019;51.080;13.642;2022-12-29T06:51:04;11.40;94.30
74488;DHT22;63019;51.080;13.642;2022-12-29T06:52:06;11.40;94.30
74488;DHT22;63019;51.080;13.642;2022-12-29T06:53:13;11.40;94.40
74488;DHT22;63019;51.080;13.642;2022-12-29T06:54:15;11.40;94.40
74488;DHT22;63019;51.080;13.642;2022-12-29T06:55:17;11.40;94.40
74488;DHT22;63019;51.080;13.642;2022-12-29T06:56:19;11.40;94.40
74488;DHT22;63019;51.080;13.642;2022-12-29T06:57:21;11.30;94.30
74488;DHT22;63019;51.080;13.642;2022-12-29T06:58:23;11.30;94.40
74488;DHT22;63019;51.080;13.642;2022-12-29T06:59:25;11.30;94.40
74488;DHT22;63019;51.080;13.642;2022-12-29T07:00:27;11.20;94.50
74488;DHT22;63019;51.080;13.642;2022-12-29T07:01:29;11.20;94.50
74488;DHT22;63019;51.080;13.642;2022-12-29T07:02:31;11.20;94.50
74488;DHT22;63019;51.080;13.642;2022-12-29T07:03:33;11.20;94.50
74488;DHT22;63019;51.080;13.642;2022-12-29T07:04:35;11.20;94.50
74488;DHT22;63019;51.080;13.642;2022-12-29T07:05:37;11.20;94.60
74488;DHT22;63019;51.080;13.642;2022-12-29T07:06:38;11.20;94.60
74488;DHT22;63019;51.080;13.642;2022-12-29T07:07:42;11.20;94.70
74488;DHT22;63019;51.080;13.642;2022-12-29T07:08:43;11.20;94.70
74488;DHT22;63019;51.080;13.642;2022-12-29T07:09:46;11.10;94.70
74488;DHT22;63019;51.080;13.642;2022-12-29T07:10:48;11.10;94.70
74488;DHT22;63019;51.080;13.642;2022-12-29T07:11:49;11.10;94.60
74488;DHT22;63019;51.080;13.642;2022-12-29T07:12:51;11.10;94.60
74488;DHT22;63019;51.080;13.642;2022-12-29T07:13:53;11.10;94.70
74488;DHT22;63019;51.080;13.642;2022-12-29T07:14:55;11.00;94.80
74488;DHT22;63019;51.080;13.642;2022-12-29T07:15:57;11.00;94.80
74488;DHT22;63019;51.080;13.642;2022-12-29T07:16:59;11.00;94.90
74488;DHT22;63019;51.080;13.642;2022-12-29T07:18:00;11.00;94.90
74488;DHT22;63019;51.080;13.642;2022-12-29T07:19:03;11.00;95.00
74488;DHT22;63019;51.080;13.642;2022-12-29T07:20:05;11.00;94.90